createdAt,value
2023-03-16T00:01:16.496Z,0.68
2023-03-16T00:03:47.554Z,1.13
2023-03-16T00:06:18.166Z,1.00
2023-03-16T00:08:48.057Z,1.13
2023-03-16T00:11:18.642Z,0.60
2023-03-16T00:13:48.592Z,1.23
2023-03-16T00:16:20.961Z,0.82
2023-03-16T00:18:51.763Z,0.60
2023-03-16T00:21:22.321Z,2.03
2023-03-16T00:23:53.844Z,1.38
2023-03-16T00:26:24.499Z,1.02
2023-03-16T00:28:55.370Z,1.30
2023-03-16T00:31:27.938Z,1.60
2023-03-16T00:33:57.947Z,0.52
2023-03-16T00:36:28.191Z,0.65
2023-03-16T00:38:59.011Z,0.82
2023-03-16T00:41:28.882Z,0.73
2023-03-16T00:44:02.850Z,1.05
2023-03-16T00:46:38.847Z,1.15
2023-03-16T00:49:16.820Z,1.38
2023-03-16T00:51:49.215Z,1.65
2023-03-16T00:54:20.525Z,1.67
2023-03-16T00:56:51.765Z,0.60
2023-03-16T00:59:22.464Z,1.50
2023-03-16T01:01:55.231Z,1.70
2023-03-16T01:04:26.346Z,0.88
2023-03-16T01:06:56.866Z,1.73
2023-03-16T01:09:27.355Z,0.93
2023-03-16T01:11:57.041Z,1.40
2023-03-16T01:14:27.636Z,1.10
2023-03-16T01:17:00.362Z,1.20
2023-03-16T01:19:36.388Z,0.77
2023-03-16T01:22:07.234Z,1.48
2023-03-16T01:24:38.296Z,1.40
2023-03-16T01:27:09.346Z,0.80
2023-03-16T01:29:40.380Z,0.98
2023-03-16T01:32:13.220Z,1.55
2023-03-16T01:34:43.928Z,0.70
2023-03-16T01:37:14.305Z,1.27
2023-03-16T01:39:53.216Z,0.77
2023-03-16T01:42:24.546Z,1.20
2023-03-16T01:45:02.079Z,1.95
2023-03-16T01:47:38.599Z,1.08
2023-03-16T01:50:09.876Z,2.53
2023-03-16T01:52:42.731Z,1.38
2023-03-16T01:55:15.923Z,1.67
2023-03-16T01:57:50.225Z,1.17
2023-03-16T02:00:25.316Z,1.40
2023-03-16T02:03:02.666Z,1.58
2023-03-16T02:05:42.668Z,1.67
2023-03-16T02:08:14.771Z,1.15
2023-03-16T02:10:47.818Z,0.98
2023-03-16T02:13:19.247Z,1.10
2023-03-16T02:15:49.795Z,0.65
2023-03-16T02:18:23.596Z,1.48
2023-03-16T02:21:05.719Z,1.27
2023-03-16T02:23:35.882Z,0.93
2023-03-16T02:26:17.271Z,1.13
2023-03-16T02:28:58.016Z,1.25
2023-03-16T02:31:30.967Z,0.82
2023-03-16T02:34:03.267Z,1.33
2023-03-16T02:36:36.099Z,1.02
2023-03-16T02:39:06.880Z,1.08
2023-03-16T02:41:37.535Z,2.00
2023-03-16T02:44:16.570Z,1.15
2023-03-16T02:47:02.691Z,1.05
2023-03-16T02:49:39.324Z,2.25
2023-03-16T02:52:10.638Z,0.85
2023-03-16T02:54:41.998Z,2.05
2023-03-16T02:57:12.979Z,0.80
2023-03-16T02:59:43.058Z,1.00
2023-03-16T03:02:15.870Z,1.40
2023-03-16T03:04:47.167Z,1.13
2023-03-16T03:07:19.069Z,1.10
2023-03-16T03:09:49.558Z,1.63
2023-03-16T03:12:20.165Z,0.57
2023-03-16T03:14:50.651Z,0.85
2023-03-16T03:17:30.598Z,0.73
2023-03-16T03:20:02.827Z,1.27
2023-03-16T03:22:32.730Z,1.80
2023-03-16T03:25:03.340Z,2.05
2023-03-16T03:27:33.675Z,1.52
2023-03-16T03:30:04.478Z,1.15
2023-03-16T03:32:37.243Z,1.80
2023-03-16T03:35:09.094Z,0.70
2023-03-16T03:37:39.460Z,1.15
2023-03-16T03:40:13.869Z,1.10
2023-03-16T03:42:46.833Z,0.75
2023-03-16T03:45:18.987Z,1.85
2023-03-16T03:47:51.605Z,1.02
2023-03-16T03:50:22.311Z,0.77
2023-03-16T03:52:53.031Z,1.30
2023-03-16T03:55:23.793Z,0.82
2023-03-16T03:57:54.337Z,0.93
2023-03-16T04:00:25.164Z,0.68
2023-03-16T04:02:57.783Z,0.98
2023-03-16T04:05:28.892Z,1.58
2023-03-16T04:07:59.068Z,1.20
2023-03-16T04:10:31.782Z,2.78
2023-03-16T04:13:02.885Z,1.20
2023-03-16T04:15:34.957Z,0.80
2023-03-16T04:18:07.123Z,3.25
2023-03-16T04:20:38.447Z,1.70
2023-03-16T04:23:09.532Z,3.58
2023-03-16T04:25:40.953Z,1.05
2023-03-16T04:28:11.394Z,2.35
2023-03-16T04:30:43.456Z,1.70
2023-03-16T04:33:15.588Z,2.83
2023-03-16T04:35:47.170Z,1.02
2023-03-16T04:38:17.569Z,0.75
2023-03-16T04:40:48.234Z,1.38
2023-03-16T04:43:18.876Z,1.92
2023-03-16T04:45:49.412Z,1.13
2023-03-16T04:48:21.452Z,1.70
2023-03-16T04:50:52.002Z,1.00
2023-03-16T04:53:22.651Z,0.82
2023-03-16T04:55:53.443Z,1.42
2023-03-16T04:58:24.876Z,1.60
2023-03-16T05:00:55.819Z,1.00
2023-03-16T05:03:28.315Z,3.60
2023-03-16T05:05:58.848Z,1.25
2023-03-16T05:08:29.723Z,0.77
2023-03-16T05:11:00.730Z,1.33
2023-03-16T05:13:31.229Z,0.98
2023-03-16T05:16:02.221Z,1.25
2023-03-16T05:18:35.202Z,1.27
2023-03-16T05:21:05.270Z,1.17
2023-03-16T05:23:35.755Z,1.33
2023-03-16T05:26:06.031Z,1.40
2023-03-16T05:28:36.472Z,1.40
2023-03-16T05:31:06.805Z,1.17
2023-03-16T05:33:39.114Z,1.42
2023-03-16T05:36:10.731Z,1.05
2023-03-16T05:38:41.452Z,1.63
2023-03-16T05:41:12.111Z,3.22
2023-03-16T05:43:42.682Z,2.33
2023-03-16T05:46:14.140Z,1.52
2023-03-16T05:48:46.422Z,1.25
2023-03-16T05:51:17.621Z,1.30
2023-03-16T05:53:48.920Z,1.80
2023-03-16T05:56:19.272Z,2.08
2023-03-16T05:58:49.622Z,0.90
2023-03-16T06:01:20.672Z,2.10
2023-03-16T06:03:54.296Z,2.47
2023-03-16T06:06:25.677Z,1.25
2023-03-16T06:08:55.676Z,1.15
2023-03-16T06:11:26.176Z,1.20
2023-03-16T06:13:58.669Z,2.05
2023-03-16T06:16:28.798Z,1.67
2023-03-16T06:19:01.732Z,1.27
2023-03-16T06:21:32.001Z,1.60
2023-03-16T06:24:02.837Z,0.95
2023-03-16T06:26:32.748Z,1.50
2023-03-16T06:29:03.081Z,1.38
2023-03-16T06:31:34.688Z,1.45
2023-03-16T06:34:06.634Z,1.40
2023-03-16T06:36:36.510Z,1.35
2023-03-16T06:39:07.043Z,1.40
2023-03-16T06:41:38.588Z,1.58
2023-03-16T06:44:09.522Z,1.35
2023-03-16T06:46:40.146Z,2.78
2023-03-16T06:49:11.863Z,0.95
2023-03-16T06:51:42.334Z,0.75
2023-03-16T06:54:12.679Z,0.80
2023-03-16T06:56:44.768Z,0.77
2023-03-16T06:59:16.704Z,1.50
2023-03-16T07:01:47.345Z,1.20
2023-03-16T07:04:20.268Z,1.17
2023-03-16T07:06:52.047Z,1.00
2023-03-16T07:09:22.377Z,0.73
2023-03-16T07:11:53.124Z,0.90
2023-03-16T07:14:25.222Z,1.08
2023-03-16T07:16:55.454Z,0.98
2023-03-16T07:19:27.422Z,0.60
2023-03-16T07:21:57.163Z,1.15
2023-03-16T07:24:27.629Z,0.90
2023-03-16T07:26:58.149Z,0.80
2023-03-16T07:29:28.936Z,1.45
2023-03-16T07:32:00.174Z,1.02
2023-03-16T07:34:32.007Z,0.98
2023-03-16T07:37:02.319Z,0.65
2023-03-16T07:39:32.637Z,0.65
2023-03-16T07:42:03.143Z,0.90
2023-03-16T07:44:34.491Z,1.05
2023-03-16T07:47:05.558Z,0.68
2023-03-16T07:49:38.003Z,1.48
2023-03-16T07:52:08.801Z,1.00
2023-03-16T07:54:39.231Z,0.75
2023-03-16T07:57:09.890Z,1.02
2023-03-16T07:59:40.322Z,0.63
2023-03-16T08:02:15.153Z,0.60
2023-03-16T08:04:49.568Z,0.70
2023-03-16T08:07:20.311Z,0.75
2023-03-16T08:09:51.816Z,0.65
2023-03-16T08:12:22.776Z,0.63
2023-03-16T08:14:52.984Z,0.55
2023-03-16T08:17:23.492Z,1.25
2023-03-16T08:19:56.137Z,0.60
2023-03-16T08:22:26.826Z,0.80
2023-03-16T08:24:57.763Z,0.70
2023-03-16T08:27:29.598Z,0.90
2023-03-16T08:30:04.995Z,0.45
2023-03-16T08:32:36.387Z,0.57
2023-03-16T08:35:11.165Z,0.88
2023-03-16T08:37:41.192Z,1.23
2023-03-16T08:40:14.371Z,0.70
2023-03-16T08:42:45.566Z,1.92
2023-03-16T08:45:16.102Z,0.70
2023-03-16T08:47:46.832Z,0.60
2023-03-16T08:50:20.584Z,0.60
2023-03-16T08:52:51.368Z,0.77
2023-03-16T08:55:22.404Z,0.88
2023-03-16T08:57:53.451Z,0.93
2023-03-16T09:00:25.474Z,0.82
2023-03-16T09:02:56.092Z,1.42
2023-03-16T09:05:28.726Z,0.52
2023-03-16T09:07:59.610Z,0.70
2023-03-16T09:10:32.785Z,0.65
2023-03-16T09:13:03.251Z,0.80
2023-03-16T09:15:34.097Z,0.98
2023-03-16T09:18:04.841Z,0.45
2023-03-16T09:20:37.402Z,0.55
2023-03-16T09:23:08.314Z,1.05
2023-03-16T09:25:38.991Z,0.50
2023-03-16T09:28:09.010Z,0.60
2023-03-16T09:30:40.521Z,1.05
2023-03-16T09:33:11.503Z,0.70
2023-03-16T09:35:44.098Z,0.73
2023-03-16T09:38:14.264Z,0.82
2023-03-16T09:40:46.940Z,0.85
2023-03-16T09:43:43.614Z,0.68
2023-03-16T09:46:23.899Z,0.32
2023-03-16T09:48:56.350Z,0.45
2023-03-16T09:51:40.616Z,1.02
2023-03-16T09:54:26.894Z,0.65
2023-03-16T09:56:59.809Z,0.70
2023-03-16T09:59:30.723Z,0.50
2023-03-16T10:02:36.114Z,1.05
2023-03-16T10:05:12.702Z,0.50
2023-03-16T10:08:00.621Z,1.75
2023-03-16T10:10:55.764Z,0.93
2023-03-16T10:13:39.163Z,0.60
2023-03-16T10:16:17.763Z,1.45
2023-03-16T10:18:52.747Z,0.40
2023-03-16T10:21:25.098Z,1.00
2023-03-16T10:24:04.638Z,0.55
2023-03-16T10:26:44.678Z,0.52
2023-03-16T10:29:17.016Z,1.05
2023-03-16T10:31:47.745Z,0.77
2023-03-16T10:34:18.332Z,0.70
2023-03-16T10:36:49.371Z,0.63
2023-03-16T10:39:21.525Z,0.43
2023-03-16T10:41:59.417Z,0.50
2023-03-16T10:44:32.453Z,0.77
2023-03-16T10:47:06.712Z,0.80
2023-03-16T10:49:42.712Z,0.82
2023-03-16T10:52:21.038Z,0.60
2023-03-16T10:54:59.324Z,0.47
2023-03-16T10:57:34.256Z,1.02
2023-03-16T11:00:21.650Z,0.80
2023-03-16T11:02:54.671Z,0.52
2023-03-16T11:05:35.154Z,0.77
2023-03-16T11:08:12.520Z,0.50
2023-03-16T11:10:55.955Z,0.43
2023-03-16T11:13:35.668Z,0.60
2023-03-16T11:16:24.289Z,0.63
2023-03-16T11:18:59.897Z,0.40
2023-03-16T11:21:42.884Z,0.52
2023-03-16T11:24:25.712Z,0.50
2023-03-16T11:27:03.813Z,0.60
2023-03-16T11:29:51.722Z,0.75
2023-03-16T11:32:29.050Z,0.90
2023-03-16T11:34:59.085Z,0.82
2023-03-16T11:37:49.587Z,0.90
2023-03-16T11:40:38.868Z,0.30
2023-03-16T11:43:45.376Z,0.80
2023-03-16T11:46:23.169Z,0.85
2023-03-16T11:49:34.131Z,0.43
2023-03-16T11:52:17.897Z,0.40
2023-03-16T11:55:07.849Z,1.75
2023-03-16T11:57:56.571Z,0.50
2023-03-16T12:00:47.260Z,0.45
2023-03-16T12:04:02.477Z,0.70
2023-03-16T12:07:03.361Z,0.40
2023-03-16T12:10:14.261Z,0.70
2023-03-16T12:13:22.602Z,0.73
2023-03-16T12:16:00.063Z,0.60
2023-03-16T12:18:46.199Z,0.85
2023-03-16T12:21:24.868Z,0.82
2023-03-16T12:23:57.878Z,0.77
2023-03-16T12:26:33.943Z,0.75
2023-03-16T12:29:21.468Z,0.43
2023-03-16T12:32:04.868Z,0.57
2023-03-16T12:34:44.012Z,0.55
2023-03-16T12:37:36.453Z,0.65
2023-03-16T12:40:34.183Z,0.82
2023-03-16T12:43:38.146Z,1.25
2023-03-16T12:46:14.798Z,0.60
2023-03-16T12:48:54.638Z,0.50
2023-03-16T12:51:37.144Z,0.63
2023-03-16T12:54:09.297Z,0.90
2023-03-16T12:56:49.355Z,0.68
2023-03-16T12:59:23.169Z,0.47
2023-03-16T13:02:01.228Z,0.52
2023-03-16T13:04:41.146Z,0.47
2023-03-16T13:07:20.684Z,0.40
2023-03-16T13:09:56.390Z,1.10
2023-03-16T13:12:31.975Z,0.52
2023-03-16T13:15:02.895Z,0.60
2023-03-16T13:17:37.231Z,1.25
2023-03-16T13:20:31.770Z,0.75
2023-03-16T13:23:24.459Z,0.68
2023-03-16T13:26:18.071Z,0.50
2023-03-16T13:28:55.247Z,0.50
2023-03-16T13:31:35.432Z,0.60
2023-03-16T13:34:09.463Z,0.50
2023-03-16T13:36:41.461Z,0.88
2023-03-16T13:39:21.239Z,0.45
2023-03-16T13:42:17.197Z,0.60
2023-03-16T13:44:48.411Z,0.45
2023-03-16T13:47:21.737Z,0.25
2023-03-16T13:49:56.748Z,0.25
2023-03-16T13:52:32.636Z,0.60
2023-03-16T13:55:08.393Z,0.50
2023-03-16T13:57:43.345Z,0.40
2023-03-16T14:00:21.591Z,0.60
2023-03-16T14:02:56.664Z,0.60
2023-03-16T14:05:30.970Z,0.57
2023-03-16T14:08:05.291Z,0.50
2023-03-16T14:10:40.719Z,0.80
2023-03-16T14:13:26.194Z,0.68
2023-03-16T14:15:58.052Z,0.60
2023-03-16T14:18:37.698Z,0.82
2023-03-16T14:21:12.522Z,0.95
2023-03-16T14:23:47.997Z,0.20
2023-03-16T14:26:21.357Z,0.60
2023-03-16T14:29:07.352Z,0.30
2023-03-16T14:31:41.326Z,0.57
2023-03-16T14:34:30.843Z,0.25
2023-03-16T14:37:12.297Z,0.50
2023-03-16T14:39:46.160Z,0.32
2023-03-16T14:42:29.727Z,0.98
2023-03-16T14:45:02.597Z,0.55
2023-03-16T14:47:43.756Z,0.95
2023-03-16T14:50:21.014Z,0.32
2023-03-16T14:52:52.603Z,0.98
2023-03-16T14:55:26.284Z,0.40
2023-03-16T14:57:57.926Z,0.40
2023-03-16T15:00:29.429Z,0.47
2023-03-16T15:03:08.480Z,0.20
2023-03-16T15:05:42.767Z,1.05
2023-03-16T15:08:22.086Z,0.40
2023-03-16T15:10:54.758Z,0.65
2023-03-16T15:13:53.438Z,0.20
2023-03-16T15:16:24.820Z,0.43
2023-03-16T15:18:54.940Z,0.30
2023-03-16T15:21:44.421Z,1.27
2023-03-16T15:24:15.486Z,0.40
2023-03-16T15:26:48.524Z,0.65
2023-03-16T15:29:20.160Z,0.40
2023-03-16T15:31:53.394Z,0.55
2023-03-16T15:34:24.941Z,0.93
2023-03-16T15:36:55.517Z,0.50
2023-03-16T15:39:28.428Z,0.63
2023-03-16T15:42:01.812Z,0.47
2023-03-16T15:44:32.154Z,0.38
2023-03-16T15:47:03.561Z,0.50
2023-03-16T15:49:45.098Z,1.08
2023-03-16T15:52:34.489Z,0.75
2023-03-16T15:55:08.232Z,0.47
2023-03-16T15:57:40.807Z,0.65
2023-03-16T16:00:31.108Z,0.82
2023-03-16T16:03:03.341Z,1.13
2023-03-16T16:05:34.728Z,0.73
2023-03-16T16:08:04.823Z,0.73
2023-03-16T16:10:36.326Z,0.60
2023-03-16T16:13:07.731Z,0.90
2023-03-16T16:15:39.397Z,0.55
2023-03-16T16:18:30.957Z,0.50
2023-03-16T16:21:04.399Z,0.82
2023-03-16T16:23:37.477Z,0.77
2023-03-16T16:26:20.864Z,0.73
2023-03-16T16:28:53.358Z,0.70
2023-03-16T16:31:25.605Z,0.70
2023-03-16T16:33:56.641Z,1.02
2023-03-16T16:36:26.866Z,1.83
2023-03-16T16:38:57.672Z,0.80
2023-03-16T16:41:32.713Z,0.50
2023-03-16T16:44:08.756Z,1.48
2023-03-16T16:46:44.263Z,1.17
2023-03-16T16:49:20.083Z,0.77
2023-03-16T16:51:50.488Z,0.60
2023-03-16T16:54:24.053Z,0.98
2023-03-16T16:56:58.454Z,0.63
2023-03-16T16:59:36.298Z,0.75
2023-03-16T17:02:25.645Z,1.20
2023-03-16T17:04:57.310Z,0.47
2023-03-16T17:07:28.236Z,0.52
2023-03-16T17:09:58.520Z,0.73
2023-03-16T17:12:30.021Z,0.75
2023-03-16T17:15:02.123Z,0.55
2023-03-16T17:17:32.910Z,1.83
2023-03-16T17:20:06.332Z,1.35
2023-03-16T17:22:36.974Z,1.23
2023-03-16T17:25:08.648Z,1.45
2023-03-16T17:27:39.474Z,0.88
2023-03-16T17:30:23.893Z,1.83
2023-03-16T17:32:55.315Z,1.63
2023-03-16T17:35:26.247Z,1.80
2023-03-16T17:37:57.656Z,1.23
2023-03-16T17:40:29.071Z,1.50
2023-03-16T17:42:59.588Z,1.63
2023-03-16T17:45:31.894Z,1.40
2023-03-16T17:48:02.829Z,1.98
2023-03-16T17:50:34.353Z,2.75
2023-03-16T17:53:05.150Z,2.20
2023-03-16T17:55:36.061Z,1.20
2023-03-16T17:58:06.353Z,1.13
2023-03-16T18:00:40.027Z,1.13
2023-03-16T18:03:17.947Z,1.27
2023-03-16T18:05:48.827Z,1.02
2023-03-16T18:08:25.944Z,1.45
2023-03-16T18:11:00.089Z,1.25
2023-03-16T18:13:35.694Z,1.52
2023-03-16T18:16:10.563Z,1.27
2023-03-16T18:18:44.642Z,1.10
2023-03-16T18:21:22.098Z,2.70
2023-03-16T18:23:53.420Z,1.60
2023-03-16T18:26:25.282Z,1.10
2023-03-16T18:28:55.973Z,1.40
2023-03-16T18:31:31.442Z,1.25
2023-03-16T18:34:05.623Z,1.55
2023-03-16T18:36:38.813Z,2.30
2023-03-16T18:39:17.716Z,1.42
2023-03-16T18:41:48.487Z,1.20
2023-03-16T18:44:22.542Z,1.23
2023-03-16T18:47:03.595Z,1.17
2023-03-16T18:49:38.088Z,1.30
2023-03-16T18:52:21.319Z,1.95
2023-03-16T18:54:53.406Z,1.55
2023-03-16T18:57:25.506Z,1.40
2023-03-16T18:59:56.715Z,0.98
2023-03-16T19:02:45.716Z,2.38
2023-03-16T19:05:20.541Z,1.25
2023-03-16T19:07:54.352Z,1.30
2023-03-16T19:10:29.899Z,1.52
2023-03-16T19:13:01.798Z,1.60
2023-03-16T19:15:36.081Z,2.05
2023-03-16T19:18:08.373Z,1.63
2023-03-16T19:20:38.516Z,1.88
2023-03-16T19:23:18.748Z,2.13
2023-03-16T19:25:49.722Z,2.25
2023-03-16T19:28:34.166Z,2.03
2023-03-16T19:31:08.241Z,1.70
2023-03-16T19:33:40.879Z,2.08
2023-03-16T19:36:18.924Z,1.48
2023-03-16T19:38:50.862Z,1.10
2023-03-16T19:41:27.694Z,1.60
2023-03-16T19:44:00.942Z,1.30
2023-03-16T19:46:33.396Z,1.65
2023-03-16T19:49:10.296Z,1.52
2023-03-16T19:51:40.751Z,2.20
2023-03-16T19:54:22.525Z,2.28
2023-03-16T19:56:54.088Z,1.75
2023-03-16T19:59:33.868Z,1.52
2023-03-16T20:02:04.572Z,1.77
2023-03-16T20:04:38.470Z,1.55
2023-03-16T20:07:17.420Z,2.95
2023-03-16T20:09:48.153Z,3.08
2023-03-16T20:12:26.458Z,3.35
2023-03-16T20:14:58.340Z,4.18
2023-03-16T20:17:31.112Z,3.75
2023-03-16T20:20:03.889Z,3.40
2023-03-16T20:22:34.359Z,2.72
2023-03-16T20:25:05.699Z,2.33
2023-03-16T20:27:35.869Z,2.40
2023-03-16T20:30:07.316Z,1.95
2023-03-16T20:32:40.421Z,1.75
2023-03-16T20:35:23.757Z,1.70
2023-03-16T20:37:54.992Z,1.50
2023-03-16T20:40:26.284Z,2.38
2023-03-16T20:42:56.728Z,2.28
2023-03-16T20:45:31.289Z,1.55
2023-03-16T20:48:02.245Z,1.48
2023-03-16T20:50:34.644Z,1.77
2023-03-16T20:53:04.877Z,1.90
2023-03-16T20:55:35.343Z,2.00
2023-03-16T20:58:08.209Z,1.17
2023-03-16T21:00:42.323Z,1.42
2023-03-16T21:03:21.149Z,2.58
2023-03-16T21:05:54.528Z,1.98
2023-03-16T21:08:25.082Z,1.58
2023-03-16T21:10:58.032Z,2.40
2023-03-16T21:13:33.883Z,1.55
2023-03-16T21:16:09.175Z,2.47
2023-03-16T21:18:39.717Z,3.58
2023-03-16T21:21:16.928Z,2.80
2023-03-16T21:23:47.767Z,4.13
2023-03-16T21:26:22.293Z,3.72
2023-03-16T21:28:58.983Z,3.35
2023-03-16T21:31:29.991Z,2.90
2023-03-16T21:34:00.988Z,3.53
2023-03-16T21:36:37.567Z,3.35
2023-03-16T21:39:22.686Z,1.88
2023-03-16T21:41:53.153Z,1.80
2023-03-16T21:44:23.833Z,1.75
2023-03-16T21:46:54.431Z,1.63
2023-03-16T21:49:25.919Z,1.77
2023-03-16T21:51:58.652Z,1.73
2023-03-16T21:54:28.238Z,1.40
2023-03-16T21:56:59.939Z,1.35
2023-03-16T21:59:30.531Z,1.48
2023-03-16T22:02:02.177Z,2.38
2023-03-16T22:04:37.426Z,1.20
2023-03-16T22:07:14.416Z,2.35
2023-03-16T22:09:45.630Z,1.73
2023-03-16T22:12:16.579Z,1.05
2023-03-16T22:14:47.004Z,0.80
2023-03-16T22:17:24.676Z,1.40
2023-03-16T22:19:55.169Z,1.20
2023-03-16T22:22:27.774Z,1.20
2023-03-16T22:24:57.888Z,1.95
2023-03-16T22:27:28.351Z,1.65
2023-03-16T22:29:58.332Z,1.42
2023-03-16T22:32:29.086Z,1.30
2023-03-16T22:35:00.269Z,0.98
2023-03-16T22:37:32.994Z,1.25
2023-03-16T22:40:04.813Z,1.75
2023-03-16T22:42:38.652Z,1.50
2023-03-16T22:45:22.579Z,1.20
2023-03-16T22:47:53.439Z,1.33
2023-03-16T22:50:26.124Z,2.38
2023-03-16T22:53:03.412Z,1.33
2023-03-16T22:55:38.033Z,1.48
2023-03-16T22:58:16.186Z,1.35
2023-03-16T23:00:47.376Z,1.10
2023-03-16T23:03:22.433Z,0.88
2023-03-16T23:05:53.048Z,1.40
2023-03-16T23:08:27.307Z,1.10
2023-03-16T23:10:57.460Z,3.45
2023-03-16T23:13:29.421Z,1.15
2023-03-16T23:15:59.727Z,1.10
2023-03-16T23:18:29.831Z,1.17
2023-03-16T23:21:00.314Z,1.10
2023-03-16T23:23:32.276Z,1.08
2023-03-16T23:26:02.639Z,1.35
2023-03-16T23:28:33.419Z,1.17
2023-03-16T23:31:03.708Z,1.10
2023-03-16T23:33:34.580Z,1.15
2023-03-16T23:36:05.006Z,1.23
2023-03-16T23:38:37.292Z,0.90
2023-03-16T23:41:08.054Z,1.33
2023-03-16T23:43:38.589Z,1.25
2023-03-16T23:46:09.439Z,0.88
2023-03-16T23:48:41.911Z,0.80
2023-03-16T23:51:22.841Z,1.02
2023-03-16T23:53:54.817Z,0.95
2023-03-16T23:56:26.648Z,0.80
2023-03-16T23:58:58.311Z,1.00
